Impacts TAF Board
For situational awareness. Not to be used for flight planning purposes.
IDs:

KPHX - Phoenix/Sky Harbor, AZ, US

Issued at 2320 UTC 21 Sep 2021
Updated at 2344 UTC 21 Sep 2021
Potential Impact None Slight Moderate High
Time2251Z 22/00Z 22/01Z 22/02Z 22/03Z 22/04Z 22/05Z 22/06Z 22/07Z 22/08Z 22/09Z 22/10Z 22/11Z 22/12Z>>
Type OBS PRVL PRVL PRVL PRVL PRVL PRVL PRVL PRVL PRVL PRVL PRVL PRVL PRVL
VIS 10 >6 >6 >6 >6 >6 >6 >6 >6 >6 >6 >6 >6 >6
CIG -- -- -- -- -- -- -- -- -- -- -- -- -- --
Cover CLR SKC SKC SKC SKC SKC SKC SKC SKC SKC SKC SKC SKC SKC
FltCat VFR VFR VFR VFR VFR VFR VFR VFR VFR VFR VFR VFR VFR VFR
WX -- -- -- -- -- -- -- -- -- -- -- -- -- --
WDir 280 270 270 270 270 270 270 270 90 90 90 90 90 90
WSpd 4 6 6 6 6 6 6 6 8 8 8 8 8 8
WGst -- -- -- -- -- -- -- -- -- -- -- -- -- --
Raw TAF
KPHX 212320Z 2200/2306 27006KT P6SM SKC
  FM220700 09008KT P6SM SKC
  TEMPO 2215/2218 10010G18KT
  FM222200 VRB05KT P6SM SKC


Raw METAR
KPHX 212251Z 28004KT 10SM CLR 38/03 A3001 RMK AO2 SLP140 T03830033
KPHX 212222Z VRB05KT 10SM CLR 39/04 A3001 RMK AO2 T03890039
KPHX 212151Z VRB06G21KT 10SM CLR 38/03 A3002 RMK AO2 SLP145 T03830033
KPHX 212051Z VRB03KT 10SM CLR 38/04 A3004 RMK AO2 SLP153 T03780039 58021

METAR Board
Radar Display
Forecast Discussion
For situational awareness. Not to be used for flight planning purposes.